Time;durP1;ratioP1;P1;durP2;ratioP2;P2;SDS_P1;SDS_P2;PMS_P1;PMS_P2;Temp;Humidity;BMP_temperature;BMP_pressure;BME280_temperature;BME280_humidity;BME280_pressure;Samples;Min_cycle;Max_cycle;Signal;HPM_P1;HPM_P2
2022/09/19 00:01:47;;;;;;;3.60;1.20;;;10.00;99.90;;;;;;5027227;28;20692;-53
2022/09/19 00:04:19;;;;;;;8.77;1.67;;;9.90;99.90;;;;;;5022822;28;20570;-54
2022/09/19 00:06:48;;;;;;;3.60;1.27;;;9.70;99.90;;;;;;5025103;28;20288;-55
2022/09/19 00:09:19;;;;;;;4.83;1.30;;;9.60;99.90;;;;;;5023850;28;20230;-53
2022/09/19 00:11:48;;;;;;;6.03;1.23;;;9.60;99.90;;;;;;5023685;28;20200;-56
2022/09/19 00:14:17;;;;;;;3.23;1.27;;;9.60;99.90;;;;;;5023176;28;20655;-54
2022/09/19 00:16:46;;;;;;;6.80;1.30;;;9.60;99.90;;;;;;5026728;28;20207;-55
2022/09/19 00:19:19;;;;;;;6.50;1.37;;;9.40;99.90;;;;;;5030566;28;20273;-54
2022/09/19 00:21:48;;;;;;;7.90;1.87;;;9.30;99.90;;;;;;5030527;28;20278;-55
2022/09/19 00:27:05;;;;;;;7.87;1.10;;;9.20;99.90;;;;;;5024641;28;20205;-54
2022/09/19 00:29:35;;;;;;;10.73;1.40;;;9.30;99.90;;;;;;5026528;28;20208;-54
2022/09/19 00:32:07;;;;;;;4.80;0.93;;;9.20;99.90;;;;;;5028925;28;20237;-54
2022/09/19 00:34:35;;;;;;;4.10;1.10;;;9.30;99.90;;;;;;5028705;28;20246;-57
2022/09/19 00:37:02;;;;;;;5.43;1.50;;;9.30;99.90;;;;;;5028632;28;20210;-54
2022/09/19 00:39:29;;;;;;;4.23;1.13;;;9.30;99.90;;;;;;5029494;28;20222;-54
2022/09/19 00:41:56;;;;;;;6.50;1.67;;;9.40;99.90;;;;;;5030090;28;20233;-56
2022/09/19 00:44:22;;;;;;;4.70;1.30;;;9.30;99.90;;;;;;5028577;28;20286;-54
2022/09/19 00:47:05;;;;;;;3.23;1.00;;;9.40;99.90;;;;;;5028202;28;20287;-55
2022/09/19 00:49:38;;;;;;;8.67;1.17;;;9.30;99.90;;;;;;5038999;28;20229;-55
2022/09/19 00:52:10;;;;;;;8.83;1.50;;;9.10;99.90;;;;;;5027202;28;20211;-54
2022/09/19 00:54:41;;;;;;;10.63;1.57;;;9.00;99.90;;;;;;5023773;28;20232;-54
2022/09/19 00:57:12;;;;;;;9.40;1.40;;;9.10;99.90;;;;;;5026604;28;20253;-54
2022/09/19 00:59:43;;;;;;;4.77;1.30;;;9.00;99.90;;;;;;5027366;28;20769;-54
2022/09/19 01:02:11;;;;;;;8.30;1.83;;;9.00;99.90;;;;;;5024880;28;20706;-54
2022/09/19 01:04:40;;;;;;;3.23;1.30;;;9.10;99.90;;;;;;5026255;28;20205;-53
2022/09/19 01:07:41;;;;;;;6.20;1.40;;;9.30;99.90;;;;;;5024796;28;20233;-54
2022/09/19 01:10:13;;;;;;;7.83;1.27;;;9.50;99.90;;;;;;5025153;28;20202;-54
2022/09/19 01:13:09;;;;;;;11.77;1.57;;;9.50;99.90;;;;;;5025749;28;20200;-56
2022/09/19 01:16:01;;;;;;;5.30;1.10;;;9.40;99.90;;;;;;5023048;28;20210;-54
2022/09/19 01:18:35;;;;;;;5.00;1.20;;;9.50;99.90;;;;;;5023941;28;20288;-53
2022/09/19 01:24:00;;;;;;;6.07;1.20;;;9.30;99.90;;;;;;5024953;28;20192;-54
2022/09/19 01:26:49;;;;;;;10.43;1.43;;;9.30;99.90;;;;;;5022965;28;20218;-57
2022/09/19 01:29:41;;;;;;;4.97;0.80;;;9.20;99.90;;;;;;5025297;28;20210;-56
2022/09/19 01:32:14;;;;;;;6.50;1.33;;;9.20;99.90;;;;;;5022414;28;20653;-55
2022/09/19 01:34:46;;;;;;;4.60;1.07;;;9.30;99.90;;;;;;5023727;28;20204;-54
2022/09/19 01:37:20;;;;;;;3.73;1.00;;;9.40;99.90;;;;;;5023474;28;20253;-56
2022/09/19 01:39:49;;;;;;;9.97;1.30;;;9.40;99.90;;;;;;5022509;28;20206;-53
2022/09/19 01:42:20;;;;;;;5.37;1.10;;;9.40;99.90;;;;;;5024943;28;20220;-55
2022/09/19 01:44:48;;;;;;;9.77;1.17;;;9.30;99.90;;;;;;5025878;28;20643;-54
2022/09/19 01:47:36;;;;;;;4.43;0.73;;;9.50;99.90;;;;;;5025888;28;20201;-54
2022/09/19 01:50:25;;;;;;;9.63;1.00;;;9.50;99.90;;;;;;5026257;28;20204;-53
2022/09/19 01:53:21;;;;;;;8.53;1.47;;;9.40;99.90;;;;;;5027475;28;20205;-54
2022/09/19 01:56:06;;;;;;;3.60;1.00;;;9.50;99.90;;;;;;5029074;28;20202;-55
2022/09/19 01:58:42;;;;;;;7.17;1.33;;;9.50;99.90;;;;;;5024864;28;20218;-54
2022/09/19 02:01:20;;;;;;;4.87;0.80;;;9.50;99.90;;;;;;5026012;28;20229;-56
2022/09/19 02:04:01;;;;;;;5.33;1.13;;;9.60;99.90;;;;;;5025203;28;20259;-55
2022/09/19 02:06:51;;;;;;;5.73;1.03;;;9.80;99.90;;;;;;5026158;28;20261;-54
2022/09/19 02:09:27;;;;;;;7.30;1.30;;;9.70;99.90;;;;;;5022083;28;20204;-53
2022/09/19 02:11:59;;;;;;;6.43;1.23;;;9.80;99.90;;;;;;5021020;28;20230;-54
2022/09/19 02:14:29;;;;;;;8.97;1.47;;;9.70;99.90;;;;;;5022388;28;20623;-54
2022/09/19 02:17:18;;;;;;;8.00;1.00;;;9.70;99.90;;;;;;5022898;28;20204;-55
2022/09/19 02:19:56;;;;;;;5.43;0.90;;;9.70;99.90;;;;;;5028604;28;20681;-54
2022/09/19 02:22:31;;;;;;;8.30;1.70;;;9.80;99.90;;;;;;5025510;28;20710;-55
2022/09/19 02:25:05;;;;;;;8.93;1.40;;;9.80;99.90;;;;;;5025488;28;20202;-53
2022/09/19 02:27:50;;;;;;;3.50;0.80;;;9.70;99.90;;;;;;5019603;28;20281;-54
2022/09/19 02:30:20;;;;;;;4.37;1.00;;;9.60;99.90;;;;;;5021190;28;20604;-56
2022/09/19 02:32:49;;;;;;;6.50;1.10;;;9.50;99.90;;;;;;5021854;28;20198;-55
2022/09/19 02:35:20;;;;;;;4.00;1.03;;;9.50;99.90;;;;;;5022728;28;20567;-53
2022/09/19 02:37:59;;;;;;;6.77;1.20;;;9.50;99.90;;;;;;5019036;28;20210;-53
2022/09/19 02:40:36;;;;;;;6.90;1.10;;;9.50;99.90;;;;;;5022516;28;21589;-54
2022/09/19 02:43:33;;;;;;;4.77;1.27;;;9.40;99.90;;;;;;5018268;28;20197;-54
2022/09/19 02:46:07;;;;;;;8.97;1.50;;;9.30;99.90;;;;;;5022532;28;20210;-56
2022/09/19 02:48:55;;;;;;;7.70;1.20;;;9.40;99.90;;;;;;5025652;28;20209;-56
2022/09/19 02:51:38;;;;;;;3.17;0.90;;;9.40;99.90;;;;;;5024110;28;20214;-54
2022/09/19 02:54:19;;;;;;;3.90;1.10;;;9.30;99.90;;;;;;5022083;28;20313;-54
2022/09/19 02:56:49;;;;;;;6.87;1.60;;;9.30;99.90;;;;;;5022459;28;20696;-54
2022/09/19 02:59:23;;;;;;;4.53;0.90;;;9.30;99.90;;;;;;5026130;28;20634;-55
2022/09/19 03:01:57;;;;;;;8.83;1.03;;;9.30;99.90;;;;;;5027312;28;20214;-55
2022/09/19 03:04:29;;;;;;;7.27;1.10;;;9.40;99.90;;;;;;5023043;28;20206;-54
2022/09/19 03:07:14;;;;;;;6.23;1.03;;;9.50;99.90;;;;;;5043490;28;20330;-54
2022/09/19 03:09:48;;;;;;;2.93;0.97;;;9.50;99.90;;;;;;5026989;28;20205;-55
2022/09/19 03:12:30;;;;;;;4.40;1.27;;;9.50;99.90;;;;;;5024605;28;20213;-54
2022/09/19 03:14:58;;;;;;;5.07;1.20;;;9.50;99.90;;;;;;5025469;28;20199;-54
2022/09/19 03:17:30;;;;;;;4.60;1.00;;;9.60;99.90;;;;;;5023829;28;20310;-55
2022/09/19 03:19:58;;;;;;;6.07;1.20;;;9.60;99.90;;;;;;5023146;28;20319;-53
2022/09/19 03:22:25;;;;;;;7.87;1.07;;;9.60;99.90;;;;;;5013373;28;20218;-54
2022/09/19 03:24:52;;;;;;;10.40;1.40;;;9.60;99.90;;;;;;5022175;28;20213;-55
2022/09/19 03:27:19;;;;;;;5.53;1.53;;;9.70;99.90;;;;;;5027192;28;20202;-55
2022/09/19 03:29:46;;;;;;;4.20;1.00;;;9.60;99.90;;;;;;5026600;28;20205;-55
2022/09/19 03:32:13;;;;;;;8.90;1.20;;;9.60;99.90;;;;;;5026642;28;20208;-55
2022/09/19 03:34:40;;;;;;;4.83;1.10;;;9.60;99.90;;;;;;5025987;28;20203;-55
2022/09/19 03:37:07;;;;;;;6.83;1.00;;;9.70;99.90;;;;;;5022184;28;20305;-54
2022/09/19 03:39:34;;;;;;;10.33;1.27;;;9.70;99.90;;;;;;5018880;28;20417;-54
2022/09/19 03:42:01;;;;;;;4.93;1.30;;;9.60;99.90;;;;;;5018494;28;20283;-54
2022/09/19 03:44:28;;;;;;;3.57;1.00;;;9.60;99.90;;;;;;5021758;28;20642;-53
2022/09/19 03:46:54;;;;;;;9.07;2.07;;;9.70;99.90;;;;;;5021533;28;20252;-54
2022/09/19 03:49:21;;;;;;;4.17;1.20;;;9.80;99.90;;;;;;5022271;28;21105;-57
2022/09/19 03:51:49;;;;;;;3.67;1.20;;;9.70;99.90;;;;;;5020017;28;20203;-56
2022/09/19 03:54:16;;;;;;;8.53;1.23;;;9.70;99.90;;;;;;5021824;28;20643;-54
2022/09/19 03:56:43;;;;;;;6.17;1.27;;;9.70;99.90;;;;;;5022925;28;20207;-54
2022/09/19 03:59:10;;;;;;;5.03;1.10;;;9.70;99.90;;;;;;5023746;28;20296;-54
2022/09/19 04:01:36;;;;;;;5.60;1.23;;;9.80;99.90;;;;;;5020422;28;20227;-55
2022/09/19 04:04:04;;;;;;;4.53;0.93;;;9.70;99.90;;;;;;5024537;28;20562;-55
2022/09/19 04:06:31;;;;;;;8.10;1.70;;;9.70;99.90;;;;;;5023954;28;20235;-54
2022/09/19 04:09:00;;;;;;;6.33;1.00;;;9.60;99.90;;;;;;5025283;28;20289;-55
2022/09/19 04:11:28;;;;;;;8.50;1.00;;;9.50;99.90;;;;;;5025432;28;20195;-55
2022/09/19 04:13:55;;;;;;;4.33;1.00;;;9.60;99.90;;;;;;5026349;28;20295;-55
2022/09/19 04:16:24;;;;;;;5.47;0.80;;;9.70;99.90;;;;;;5028534;28;20655;-54
2022/09/19 04:18:52;;;;;;;6.40;1.00;;;9.60;99.90;;;;;;5031631;28;20226;-54
2022/09/19 04:21:19;;;;;;;4.80;1.10;;;9.80;99.90;;;;;;5028456;28;20283;-54
2022/09/19 04:23:46;;;;;;;6.27;1.20;;;9.90;99.90;;;;;;5029823;28;20207;-54
2022/09/19 04:26:13;;;;;;;6.80;1.20;;;9.90;99.90;;;;;;5027104;28;20337;-56
2022/09/19 04:28:41;;;;;;;6.60;1.30;;;9.90;99.90;;;;;;5027394;28;20193;-55
2022/09/19 04:31:12;;;;;;;5.73;1.37;;;9.90;99.90;;;;;;5028433;28;20240;-53
2022/09/19 04:33:40;;;;;;;5.57;1.17;;;10.00;99.90;;;;;;5028978;28;20203;-55
2022/09/19 04:36:08;;;;;;;9.50;1.43;;;10.00;99.90;;;;;;5025481;28;20204;-54
2022/09/19 04:38:36;;;;;;;8.10;1.20;;;10.10;99.90;;;;;;5025067;28;20211;-54
2022/09/19 04:41:04;;;;;;;5.40;1.43;;;10.10;99.90;;;;;;5026284;28;20290;-54
2022/09/19 04:43:32;;;;;;;5.50;0.90;;;10.20;99.90;;;;;;5028006;28;20608;-55
2022/09/19 04:46:01;;;;;;;8.03;1.80;;;10.20;99.90;;;;;;5027137;28;20218;-54
2022/09/19 04:48:28;;;;;;;5.83;1.23;;;10.30;99.90;;;;;;5027799;28;20532;-54
2022/09/19 04:50:56;;;;;;;7.33;1.07;;;10.20;99.90;;;;;;5025558;28;20202;-55
2022/09/19 04:53:24;;;;;;;6.03;1.30;;;10.40;99.90;;;;;;5026795;28;20702;-54
2022/09/19 04:55:53;;;;;;;9.10;1.60;;;10.40;99.90;;;;;;5028190;28;20643;-54
2022/09/19 04:58:20;;;;;;;5.73;1.37;;;10.40;99.90;;;;;;5026448;28;20234;-54
2022/09/19 05:00:55;;;;;;;7.37;1.30;;;10.40;99.90;;;;;;5024539;28;20225;-56
2022/09/19 05:03:25;;;;;;;6.20;1.53;;;10.50;99.90;;;;;;5023696;28;20659;-54
2022/09/19 05:05:53;;;;;;;6.40;1.10;;;10.50;99.90;;;;;;5025417;28;20227;-54
2022/09/19 05:08:25;;;;;;;6.80;1.10;;;10.40;99.90;;;;;;5024451;28;20313;-53
2022/09/19 05:10:54;;;;;;;5.33;1.10;;;10.50;99.90;;;;;;5026388;28;20198;-56
2022/09/19 05:13:27;;;;;;;7.83;1.33;;;10.40;99.90;;;;;;5029381;28;20590;-53
2022/09/19 05:15:55;;;;;;;8.10;1.20;;;10.50;99.90;;;;;;5027824;28;20228;-55
2022/09/19 05:18:23;;;;;;;9.23;1.53;;;10.60;99.90;;;;;;5029337;28;20295;-54
2022/09/19 05:20:52;;;;;;;3.93;1.20;;;10.60;99.90;;;;;;5029267;28;20222;-55
2022/09/19 05:23:23;;;;;;;2.33;0.90;;;10.60;99.90;;;;;;5027763;28;20226;-55
2022/09/19 05:25:53;;;;;;;5.03;1.40;;;10.50;99.90;;;;;;5028474;28;20205;-54
2022/09/19 05:28:27;;;;;;;6.47;1.23;;;10.70;99.90;;;;;;5029787;28;20689;-55
2022/09/19 05:30:55;;;;;;;3.90;0.93;;;10.70;99.90;;;;;;5028510;28;20215;-55
2022/09/19 05:33:26;;;;;;;8.20;1.30;;;10.70;99.90;;;;;;5027768;28;20591;-55
2022/09/19 05:35:55;;;;;;;4.87;1.30;;;10.70;99.90;;;;;;5028531;28;20581;-54
2022/09/19 05:38:23;;;;;;;10.50;1.50;;;10.80;99.90;;;;;;5024997;28;20671;-54
2022/09/19 05:40:52;;;;;;;9.30;1.30;;;10.70;99.90;;;;;;5025251;28;20220;-54
2022/09/19 05:43:19;;;;;;;7.17;2.00;;;10.70;99.90;;;;;;5021156;28;20606;-54
2022/09/19 05:45:46;;;;;;;5.37;1.50;;;10.80;99.90;;;;;;5024569;28;20202;-54
2022/09/19 05:48:14;;;;;;;5.97;1.20;;;10.80;99.90;;;;;;5026020;28;20209;-54
2022/09/19 05:50:43;;;;;;;2.87;1.30;;;11.00;99.90;;;;;;5026212;28;20628;-56
2022/09/19 05:55:56;;;;;;;7.90;1.13;;;11.00;99.90;;;;;;4658611;28;10000106;-53
2022/09/19 05:58:24;;;;;;;6.83;1.50;;;11.00;99.90;;;;;;5014364;28;20212;-54
2022/09/19 06:00:51;;;;;;;8.03;1.30;;;11.10;99.90;;;;;;5012696;28;20237;-54
2022/09/19 06:03:20;;;;;;;7.97;1.20;;;11.10;99.90;;;;;;5018943;28;20210;-54
2022/09/19 06:05:49;;;;;;;8.80;1.50;;;11.20;99.90;;;;;;5024733;28;20287;-60
2022/09/19 06:08:17;;;;;;;7.57;1.20;;;11.20;99.90;;;;;;5022639;28;20231;-55
2022/09/19 06:10:45;;;;;;;5.43;1.33;;;11.30;99.90;;;;;;5024767;28;20270;-54
2022/09/19 06:13:20;;;;;;;5.07;1.17;;;11.30;99.90;;;;;;5025579;28;20206;-54
2022/09/19 06:15:49;;;;;;;5.87;1.40;;;11.30;99.90;;;;;;5022152;28;20648;-53
2022/09/19 06:18:16;;;;;;;7.83;1.27;;;11.30;99.90;;;;;;5025289;28;20198;-53
2022/09/19 06:20:44;;;;;;;4.10;1.27;;;11.30;99.90;;;;;;5025261;28;20223;-54
2022/09/19 06:23:11;;;;;;;11.73;1.33;;;11.40;99.90;;;;;;5024969;28;20280;-54
2022/09/19 06:25:39;;;;;;;6.83;1.63;;;11.50;99.90;;;;;;5021648;28;20291;-55
2022/09/19 06:28:15;;;;;;;4.53;1.40;;;11.60;99.90;;;;;;5015764;28;20806;-55
2022/09/19 06:30:44;;;;;;;7.50;1.13;;;11.60;99.90;;;;;;5016233;28;20295;-54
2022/09/19 06:33:11;;;;;;;7.73;1.50;;;11.70;99.90;;;;;;5018614;28;20647;-63
2022/09/19 06:35:38;;;;;;;3.10;1.30;;;11.70;99.90;;;;;;5015802;28;22031;-62
2022/09/19 06:38:07;;;;;;;4.80;1.60;;;11.90;99.90;;;;;;5018757;28;20203;-63
2022/09/19 06:40:36;;;;;;;10.87;1.63;;;11.90;99.90;;;;;;5018352;28;20739;-63
2022/09/19 06:43:05;;;;;;;10.77;1.43;;;11.90;99.90;;;;;;5035973;28;20200;-62
2022/09/19 06:45:37;;;;;;;7.53;1.47;;;12.10;99.90;;;;;;5018926;28;20203;-63
2022/09/19 06:48:11;;;;;;;6.13;1.33;;;12.10;99.90;;;;;;5043746;28;21068;-63
2022/09/19 06:50:38;;;;;;;6.77;1.43;;;12.20;99.90;;;;;;5043109;28;20214;-63
2022/09/19 06:53:05;;;;;;;10.00;1.23;;;12.30;99.90;;;;;;5036273;28;20416;-62
2022/09/19 06:55:31;;;;;;;10.43;2.00;;;12.30;99.90;;;;;;5036762;28;20500;-64
2022/09/19 06:58:01;;;;;;;8.60;2.47;;;12.30;99.90;;;;;;5039946;28;20202;-63
2022/09/19 07:00:31;;;;;;;6.07;1.50;;;12.30;99.90;;;;;;5033544;28;20221;-65
2022/09/19 07:03:00;;;;;;;5.00;1.10;;;12.40;99.90;;;;;;5031919;28;20282;-63
2022/09/19 07:05:30;;;;;;;8.00;1.50;;;12.40;99.90;;;;;;5031028;28;20202;-62
2022/09/19 07:07:57;;;;;;;7.23;1.67;;;12.40;99.90;;;;;;5029681;28;20212;-62
2022/09/19 07:10:23;;;;;;;6.83;1.63;;;12.50;99.90;;;;;;5025265;28;20204;-62
2022/09/19 07:12:56;;;;;;;8.67;1.50;;;12.50;99.90;;;;;;5025849;28;20269;-64
2022/09/19 07:15:24;;;;;;;4.00;1.00;;;12.70;99.90;;;;;;5036970;28;20197;-62
2022/09/19 07:17:55;;;;;;;7.93;1.27;;;12.70;99.90;;;;;;5028668;28;20578;-62
2022/09/19 07:20:23;;;;;;;5.60;1.30;;;12.80;36.50;;;;;;5026132;28;20207;-63
2022/09/19 07:23:00;;;;;;;6.57;1.10;;;12.80;39.30;;;;;;5024883;28;20200;-63
2022/09/19 07:25:32;;;;;;;6.13;1.40;;;12.80;1.00;;;;;;5025684;28;20210;-62
2022/09/19 07:28:01;;;;;;;6.47;1.70;;;12.90;1.00;;;;;;5026105;28;20675;-61
2022/09/19 07:30:32;;;;;;;9.33;1.47;;;13.00;1.00;;;;;;5019993;28;20197;-63
2022/09/19 07:33:01;;;;;;;7.03;1.53;;;13.00;1.00;;;;;;5026131;28;20580;-63
2022/09/19 07:35:29;;;;;;;6.83;1.40;;;13.20;1.00;;;;;;5027622;28;20295;-62
2022/09/19 07:38:02;;;;;;;6.13;1.40;;;13.20;1.00;;;;;;5023396;28;20209;-63
2022/09/19 07:40:29;;;;;;;6.53;1.43;;;13.30;1.00;;;;;;5031037;28;20339;-56
2022/09/19 07:43:01;;;;;;;9.13;1.30;;;13.30;1.00;;;;;;5032484;28;20882;-55
2022/09/19 07:45:29;;;;;;;8.00;1.27;;;13.40;1.00;;;;;;5033374;28;20583;-55
2022/09/19 07:48:02;;;;;;;5.37;1.30;;;13.30;1.00;;;;;;5029118;28;20592;-54
2022/09/19 07:50:29;;;;;;;8.60;1.30;;;13.40;1.00;;;;;;5033847;28;20224;-53
2022/09/19 07:53:04;;;;;;;7.57;1.43;;;13.40;1.00;;;;;;5030191;28;20220;-54
2022/09/19 07:55:32;;;;;;;13.37;1.40;;;13.50;1.00;;;;;;5031954;28;20195;-54
2022/09/19 07:58:00;;;;;;;4.03;1.33;;;13.60;1.00;;;;;;5017311;28;20679;-54
2022/09/19 08:00:28;;;;;;;7.30;1.40;;;13.70;1.00;;;;;;5014638;28;20215;-54
2022/09/19 08:03:06;;;;;;;10.07;1.57;;;13.80;1.00;;;;;;5015001;28;20610;-55
2022/09/19 08:05:37;;;;;;;5.27;1.30;;;14.00;6.70;;;;;;5015700;28;20732;-55
2022/09/19 08:08:06;;;;;;;6.03;1.47;;;14.20;1.00;;;;;;5018016;28;20229;-54
2022/09/19 08:10:34;;;;;;;5.73;1.10;;;14.30;59.10;;;;;;5012083;28;20612;-54
2022/09/19 08:13:06;;;;;;;9.73;1.33;;;14.30;99.90;;;;;;5018480;28;20685;-54
2022/09/19 08:15:34;;;;;;;5.97;1.10;;;14.20;1.00;;;;;;5013073;28;20197;-54
2022/09/19 08:18:06;;;;;;;6.90;1.30;;;14.20;1.00;;;;;;5017983;28;20577;-55
2022/09/19 08:20:39;;;;;;;8.97;1.60;;;14.30;1.00;;;;;;5015976;28;20401;-54
2022/09/19 08:23:11;;;;;;;4.67;1.10;;;14.30;1.00;;;;;;5016915;28;20204;-55
2022/09/19 08:25:41;;;;;;;7.23;1.40;;;14.40;1.00;;;;;;5015534;28;20201;-54
2022/09/19 08:28:08;;;;;;;7.60;1.30;;;14.60;99.90;;;;;;5017529;28;20212;-54
2022/09/19 08:30:35;;;;;;;6.23;1.10;;;14.80;1.00;;;;;;5013281;28;20293;-55
2022/09/19 08:33:03;;;;;;;5.30;1.33;;;15.20;99.90;;;;;;5016729;28;20200;-54
2022/09/19 08:35:32;;;;;;;8.40;1.50;;;15.40;99.90;;;;;;5016762;28;20623;-55
2022/09/19 08:38:00;;;;;;;6.83;1.20;;;15.40;54.10;;;;;;5018603;28;20194;-54
2022/09/19 08:40:46;;;;;;;4.33;1.43;;;15.60;1.00;;;;;;5013062;28;20202;-54
2022/09/19 08:43:42;;;;;;;9.77;1.73;;;15.80;1.00;;;;;;5016697;28;20224;-53
2022/09/19 08:46:24;;;;;;;4.97;1.23;;;16.00;1.00;;;;;;5016960;28;20237;-54
2022/09/19 08:49:09;;;;;;;4.30;1.37;;;16.10;1.00;;;;;;5014445;28;20199;-54
2022/09/19 08:51:52;;;;;;;2.80;0.97;;;16.10;94.40;;;;;;5011482;28;20292;-54
2022/09/19 08:54:27;;;;;;;6.27;0.83;;;16.10;99.90;;;;;;5018033;28;21115;-52
2022/09/19 08:56:55;;;;;;;5.27;1.07;;;16.50;99.90;;;;;;5014501;28;20589;-53
2022/09/19 08:59:24;;;;;;;4.93;1.90;;;16.50;1.00;;;;;;5015262;28;20216;-53
2022/09/19 09:02:21;;;;;;;3.13;0.70;;;16.70;99.90;;;;;;5014199;28;20690;-53
2022/09/19 09:04:50;;;;;;;2.97;1.10;;;17.10;1.00;;;;;;5020400;28;20206;-54
2022/09/19 09:07:53;;;;;;;7.50;0.83;;;16.90;99.90;;;;;;5013761;28;20212;-54
2022/09/19 09:10:50;;;;;;;6.97;1.40;;;17.20;99.90;;;;;;5010620;28;20533;-53
2022/09/19 09:13:32;;;;;;;4.70;0.90;;;17.50;1.00;;;;;;5014585;28;20210;-54
2022/09/19 09:16:40;;;;;;;4.00;0.83;;;17.80;1.00;;;;;;5011191;28;20481;-54
2022/09/19 09:19:21;;;;;;;7.73;1.10;;;17.20;1.00;;;;;;5014679;28;20291;-53
2022/09/19 09:22:16;;;;;;;6.73;1.20;;;16.90;1.00;;;;;;5009199;28;20194;-53
2022/09/19 09:24:51;;;;;;;5.33;1.10;;;16.80;1.00;;;;;;5015153;28;20213;-53
2022/09/19 09:27:27;;;;;;;8.73;1.73;;;16.80;1.00;;;;;;5012334;28;21258;-54
2022/09/19 09:29:59;;;;;;;6.40;1.47;;;17.10;1.00;;;;;;5011882;28;20227;-54
2022/09/19 09:32:40;;;;;;;3.57;1.00;;;17.20;1.00;;;;;;5010538;28;20195;-54
2022/09/19 09:35:14;;;;;;;8.57;1.37;;;17.40;1.00;;;;;;5014769;28;20200;-54
2022/09/19 09:38:02;;;;;;;5.30;1.00;;;17.00;99.90;;;;;;5008647;28;20209;-53
2022/09/19 09:43:24;;;;;;;4.80;1.03;;;17.20;1.00;;;;;;5020297;28;20628;-54
2022/09/19 09:45:51;;;;;;;3.53;1.07;;;17.30;1.00;;;;;;5020775;28;20548;-54
2022/09/19 09:48:37;;;;;;;2.63;0.83;;;17.30;1.00;;;;;;5017592;28;20763;-54
2022/09/19 09:51:35;;;;;;;4.87;1.20;;;17.30;1.00;;;;;;5011680;28;20223;-55
2022/09/19 09:57:37;;;;;;;3.20;0.80;;;16.80;1.00;;;;;;5014757;28;20517;-57
2022/09/19 10:03:35;;;;;;;2.27;0.80;;;16.50;99.90;;;;;;5016849;28;20663;-54
2022/09/19 10:06:25;;;;;;;3.17;0.70;;;16.20;99.90;;;;;;5014678;28;20213;-55
2022/09/19 10:09:06;;;;;;;6.03;1.53;;;16.10;1.00;;;;;;5021206;28;20785;-54
2022/09/19 10:12:06;;;;;;;4.20;0.87;;;16.10;1.00;;;;;;5014042;28;20203;-54
2022/09/19 10:15:05;;;;;;;3.93;0.87;;;16.10;1.00;;;;;;5017359;28;20678;-53
2022/09/19 10:17:39;;;;;;;2.67;0.70;;;16.00;1.00;;;;;;5017752;28;20199;-55
2022/09/19 10:20:29;;;;;;;8.00;1.30;;;16.00;1.00;;;;;;5017386;28;20204;-54
2022/09/19 10:22:57;;;;;;;2.87;0.80;;;16.10;49.90;;;;;;5016796;28;20742;-54
2022/09/19 10:25:29;;;;;;;2.83;0.57;;;16.10;99.90;;;;;;5020001;28;20234;-54
2022/09/19 10:28:15;;;;;;;4.43;0.80;;;16.00;68.40;;;;;;5013753;28;20736;-55
2022/09/19 10:30:58;;;;;;;5.63;0.97;;;16.00;1.00;;;;;;5014788;28;20270;-54
2022/09/19 10:33:48;;;;;;;4.20;0.80;;;15.90;1.00;;;;;;5018028;28;20280;-54
2022/09/19 10:36:25;;;;;;;4.27;1.03;;;16.00;1.00;;;;;;5016121;28;20212;-56
2022/09/19 10:39:00;;;;;;;4.70;1.23;;;16.00;99.90;;;;;;5015856;28;20202;-54
2022/09/19 10:41:32;;;;;;;2.23;1.00;;;16.00;1.00;;;;;;5011293;28;20256;-54
2022/09/19 10:44:02;;;;;;;5.37;0.90;;;16.10;1.00;;;;;;5016855;28;20205;-54
2022/09/19 10:46:42;;;;;;;7.17;1.00;;;16.10;99.90;;;;;;5017351;28;20258;-54
2022/09/19 10:49:22;;;;;;;3.70;0.90;;;16.10;99.90;;;;;;5014488;28;20195;-54
2022/09/19 10:51:51;;;;;;;4.67;0.80;;;16.20;99.90;;;;;;5013662;28;20285;-54
2022/09/19 10:54:44;;;;;;;6.17;0.93;;;16.30;99.90;;;;;;5014377;28;20201;-54
2022/09/19 10:57:34;;;;;;;8.23;1.40;;;16.20;99.90;;;;;;5011250;28;20299;-55
2022/09/19 11:00:04;;;;;;;5.47;0.90;;;16.10;1.00;;;;;;5012388;28;20234;-53
2022/09/19 11:02:33;;;;;;;5.43;1.10;;;16.00;1.00;;;;;;5011848;28;20231;-54
2022/09/19 11:05:03;;;;;;;2.90;0.60;;;16.10;99.90;;;;;;5016684;28;20203;-54
2022/09/19 11:07:54;;;;;;;6.67;0.90;;;16.10;14.20;;;;;;5020025;28;20278;-54
2022/09/19 11:10:33;;;;;;;5.00;0.90;;;16.10;99.90;;;;;;5016752;28;20206;-54
2022/09/19 11:13:10;;;;;;;3.80;0.97;;;16.10;1.00;;;;;;5015147;28;20202;-55
2022/09/19 11:15:49;;;;;;;4.57;0.77;;;16.20;99.90;;;;;;5012318;28;20198;-55
2022/09/19 11:18:46;;;;;;;4.97;0.90;;;16.40;99.90;;;;;;5024339;28;20211;-54
2022/09/19 11:21:44;;;;;;;7.23;1.00;;;16.40;1.00;;;;;;5012232;28;20739;-52
2022/09/19 11:24:32;;;;;;;3.17;0.80;;;16.40;99.90;;;;;;5014612;28;20286;-55
2022/09/19 11:27:31;;;;;;;6.97;1.30;;;16.40;99.90;;;;;;5018195;28;20207;-55
2022/09/19 11:30:19;;;;;;;2.80;0.83;;;16.40;99.90;;;;;;5017221;28;20198;-55
2022/09/19 11:33:07;;;;;;;3.57;0.83;;;16.80;78.90;;;;;;5017787;28;20261;-53
2022/09/19 11:36:07;;;;;;;4.30;0.80;;;17.10;1.00;;;;;;5014117;28;20224;-54
2022/09/19 11:38:53;;;;;;;5.07;0.70;;;17.40;99.90;;;;;;5017070;28;20208;-54
2022/09/19 11:42:04;;;;;;;3.83;1.03;;;17.70;1.00;;;;;;5017843;28;20735;-52
2022/09/19 11:44:43;;;;;;;3.43;0.80;;;18.10;1.00;;;;;;5021391;28;20655;-55
2022/09/19 11:47:28;;;;;;;3.70;0.80;;;17.90;1.00;;;;;;5018166;28;20778;-55
2022/09/19 11:50:23;;;;;;;7.60;1.00;;;17.60;18.20;;;;;;5023647;28;20200;-55
2022/09/19 11:53:06;;;;;;;7.80;2.43;;;17.20;99.90;;;;;;5014606;28;21066;-55
2022/09/19 11:55:45;;;;;;;3.17;0.70;;;17.10;99.90;;;;;;5019598;28;20217;-54
2022/09/19 11:58:46;;;;;;;7.83;1.00;;;17.00;99.90;;;;;;5019864;28;20233;-54
2022/09/19 12:01:27;;;;;;;3.47;0.70;;;17.20;1.00;;;;;;5023396;28;21390;-54
2022/09/19 12:04:16;;;;;;;3.17;0.60;;;17.90;1.00;;;;;;5019690;28;20208;-53
2022/09/19 12:07:24;;;;;;;4.00;0.70;;;18.10;1.00;;;;;;5013313;28;20206;-55
2022/09/19 12:10:11;;;;;;;3.60;0.80;;;17.90;1.00;;;;;;5016910;28;20211;-54
2022/09/19 12:12:45;;;;;;;3.27;0.80;;;17.40;1.00;;;;;;5019378;28;20723;-53
2022/09/19 12:15:24;;;;;;;3.33;0.87;;;17.30;1.00;;;;;;5020268;28;20216;-56
2022/09/19 12:18:12;;;;;;;3.17;0.60;;;17.10;1.00;;;;;;5014867;28;20650;-55
2022/09/19 12:20:49;;;;;;;2.90;0.60;;;17.40;1.00;;;;;;5031782;28;20299;-55
2022/09/19 12:26:32;;;;;;;3.90;0.90;;;17.40;99.90;;;;;;5018125;28;21462;-53
2022/09/19 12:29:19;;;;;;;3.87;0.73;;;17.70;1.00;;;;;;5012943;28;20223;-53
2022/09/19 12:31:53;;;;;;;2.47;0.63;;;17.20;1.00;;;;;;5013494;28;20660;-53
2022/09/19 12:34:59;;;;;;;6.67;1.03;;;16.90;1.00;;;;;;5010756;28;20225;-57
2022/09/19 12:37:46;;;;;;;4.00;0.70;;;17.40;1.00;;;;;;5016149;28;20684;-54
2022/09/19 12:40:28;;;;;;;2.50;0.70;;;17.90;1.00;;;;;;5008786;28;21356;-53
2022/09/19 12:43:11;;;;;;;2.97;0.40;;;18.60;99.90;;;;;;5009964;28;20211;-54
2022/09/19 12:45:53;;;;;;;2.63;0.60;;;18.30;99.90;;;;;;5020351;28;20197;-54
2022/09/19 12:48:42;;;;;;;6.30;1.20;;;19.00;99.90;;;;;;5011673;28;20305;-54
2022/09/19 12:51:12;;;;;;;4.70;0.83;;;18.90;99.90;;;;;;5027587;28;20204;-56
2022/09/19 12:54:10;;;;;;;5.57;1.77;;;18.90;1.00;;;;;;5010259;28;20197;-55
2022/09/19 12:56:46;;;;;;;3.77;1.10;;;18.80;99.90;;;;;;5012927;28;20235;-53
2022/09/19 12:59:25;;;;;;;5.57;0.83;;;19.60;99.90;;;;;;5015509;28;20204;-54
2022/09/19 13:01:57;;;;;;;4.93;0.90;;;19.90;1.00;;;;;;5010012;28;20233;-54
2022/09/19 13:04:47;;;;;;;4.20;0.70;;;19.70;1.00;;;;;;5015531;28;20212;-53
2022/09/19 13:07:51;;;;;;;4.43;1.10;;;20.00;1.00;;;;;;5028883;28;20683;-53
2022/09/19 13:10:30;;;;;;;5.53;1.23;;;19.30;1.00;;;;;;5013056;28;20208;-54
2022/09/19 13:13:03;;;;;;;4.13;1.00;;;19.20;99.90;;;;;;5015870;28;20844;-54
2022/09/19 13:15:38;;;;;;;6.33;1.30;;;18.40;99.90;;;;;;5026340;28;20211;-54
2022/09/19 13:23:44;;;;;;;4.37;1.00;;;17.40;1.00;;;;;;5013401;28;20296;-54
2022/09/19 13:26:17;;;;;;;4.03;0.80;;;17.20;99.90;;;;;;5006096;28;20199;-52
2022/09/19 13:28:55;;;;;;;2.70;0.57;;;17.50;99.90;;;;;;5012549;28;20217;-54
2022/09/19 13:31:56;;;;;;;5.00;1.13;;;18.10;99.90;;;;;;5013271;28;20676;-53
2022/09/19 13:34:43;;;;;;;3.53;0.90;;;18.30;99.90;;;;;;5014002;28;20304;-54
2022/09/19 13:37:32;;;;;;;4.83;0.93;;;18.00;99.90;;;;;;5007429;28;20265;-55
2022/09/19 13:40:14;;;;;;;4.20;1.10;;;17.70;99.90;;;;;;5019772;28;20207;-54
2022/09/19 13:42:59;;;;;;;4.60;0.80;;;17.80;99.90;;;;;;5013448;28;20207;-54
2022/09/19 13:45:38;;;;;;;3.37;1.43;;;17.80;1.00;;;;;;5017849;28;20305;-54
2022/09/19 13:48:30;;;;;;;4.20;1.03;;;17.50;1.00;;;;;;5014762;28;20234;-54
2022/09/19 13:51:07;;;;;;;3.03;0.67;;;17.10;1.00;;;;;;5031122;28;20563;-54
2022/09/19 13:53:41;;;;;;;3.00;0.67;;;17.10;1.00;;;;;;5015635;28;20198;-54
2022/09/19 13:56:36;;;;;;;3.80;0.50;;;17.10;99.90;;;;;;5003701;28;20194;-53
2022/09/19 13:59:25;;;;;;;4.27;0.70;;;17.00;1.00;;;;;;5011786;28;20614;-55
2022/09/19 14:02:11;;;;;;;5.60;0.83;;;17.10;1.00;;;;;;5009980;28;20650;-55
2022/09/19 14:04:54;;;;;;;4.33;0.80;;;16.90;99.90;;;;;;5010261;28;20200;-54